Time;durP1;ratioP1;P1;durP2;ratioP2;P2;SDS_P1;SDS_P2;PMS_P1;PMS_P2;Temp;Humidity;BMP_temperature;BMP_pressure;BME280_temperature;BME280_humidity;BME280_pressure;Samples;Min_cycle;Max_cycle;Signal;HPM_P1;HPM_P2
2022/09/12 00:00:42;;;;;;;3.45;1.80;;;;;;;16.20;58.11;93686.69;4973464;28;20045;-79
2022/09/12 00:03:08;;;;;;;1.88;1.42;;;;;;;15.80;57.90;93627.16;4970921;28;20026;-77
2022/09/12 00:05:33;;;;;;;1.95;1.73;;;;;;;16.24;57.70;93686.75;4960475;28;20133;-77
2022/09/12 00:07:59;;;;;;;1.88;1.70;;;;;;;16.24;57.26;93700.94;4970892;28;20558;-79
2022/09/12 00:10:25;;;;;;;2.72;1.88;;;;;;;16.27;57.15;93699.47;4971523;28;20487;-76
2022/09/12 00:12:51;;;;;;;4.00;1.85;;;;;;;16.35;56.61;93685.09;4968313;28;20026;-77
2022/09/12 00:15:17;;;;;;;1.98;1.73;;;;;;;16.46;55.43;93706.81;4971132;28;20050;-77
2022/09/12 00:17:42;;;;;;;1.83;1.42;;;;;;;15.96;55.62;93681.56;4969883;28;20383;-77
2022/09/12 00:20:09;;;;;;;1.60;1.38;;;;;;;16.32;55.49;93715.34;4974006;28;20018;-77
2022/09/12 00:22:35;;;;;;;1.75;1.10;;;;;;;16.26;54.68;93706.75;4967553;28;20529;-78
2022/09/12 00:25:01;;;;;;;1.70;1.50;;;;;;;16.44;54.61;93715.19;4972385;28;20061;-78
2022/09/12 00:27:27;;;;;;;2.28;1.45;;;;;;;16.19;54.17;93698.53;4970672;28;20534;-78
2022/09/12 00:29:53;;;;;;;3.17;1.77;;;;;;;16.36;54.58;93718.09;4969737;28;20042;-78
2022/09/12 00:32:19;;;;;;;2.08;1.67;;;;;;;16.09;54.48;93683.00;4972492;28;20527;-77
2022/09/12 00:34:44;;;;;;;3.08;1.48;;;;;;;16.25;54.40;93707.09;4971433;28;20069;-78
2022/09/12 00:37:10;;;;;;;1.80;1.50;;;;;;;16.13;54.81;93705.31;4971707;28;20015;-77
2022/09/12 00:39:35;;;;;;;1.50;1.38;;;;;;;15.80;55.22;93675.44;4969251;28;20030;-79
2022/09/12 00:42:00;;;;;;;2.58;1.50;;;;;;;16.05;55.25;93689.41;4954509;28;20041;-77
2022/09/12 00:44:26;;;;;;;2.17;1.77;;;;;;;16.28;55.28;93717.91;4968308;28;20030;-78
2022/09/12 00:47:13;;;;;;;3.35;1.63;;;;;;;16.26;55.00;93711.34;4972004;28;20026;-77
2022/09/12 00:49:53;;;;;;;1.60;1.35;;;;;;;16.19;55.15;93682.44;4953100;28;20026;-78
2022/09/12 00:52:42;;;;;;;2.30;1.77;;;;;;;16.37;54.31;93712.38;4970447;28;20014;-78
2022/09/12 00:55:40;;;;;;;1.67;1.40;;;;;;;16.08;54.09;93708.28;4952469;28;20042;-77
2022/09/12 00:58:13;;;;;;;1.77;1.50;;;;;;;15.90;54.65;93691.00;4957294;28;20107;-78
2022/09/12 01:00:39;;;;;;;1.77;1.20;;;;;;;15.93;54.55;93701.03;4969677;28;20035;-76
2022/09/12 01:03:13;;;;;;;2.38;1.40;;;;;;;15.84;54.70;93697.78;4972583;28;20384;-77
2022/09/12 01:05:43;;;;;;;1.35;1.10;;;;;;;15.76;54.43;93686.09;4971859;28;20240;-78
2022/09/12 01:08:10;;;;;;;1.13;1.00;;;;;;;15.66;54.42;93675.88;4969269;28;20048;-77
2022/09/12 01:10:37;;;;;;;1.23;0.93;;;;;;;15.54;53.63;93672.53;4968772;28;20037;-77
2022/09/12 01:13:06;;;;;;;1.10;1.00;;;;;;;15.80;53.53;93686.16;4969889;28;20023;-78
2022/09/12 01:15:32;;;;;;;1.27;1.00;;;;;;;15.79;53.10;93690.75;4970132;28;20869;-77
2022/09/12 01:18:16;;;;;;;0.77;0.77;;;;;;;15.79;53.00;93682.69;4971776;28;20023;-77
2022/09/12 01:20:50;;;;;;;1.23;0.73;;;;;;;15.73;53.24;93699.41;4970770;28;20073;-78
2022/09/12 01:23:41;;;;;;;1.13;0.90;;;;;;;15.45;53.51;93694.91;4953518;28;20063;-76
2022/09/12 01:26:31;;;;;;;1.35;1.25;;;;;;;15.30;54.19;93694.91;4954073;28;20027;-77
2022/09/12 01:29:24;;;;;;;1.20;1.10;;;;;;;15.16;54.77;93673.88;4972022;28;20023;-78
2022/09/12 01:32:07;;;;;;;1.80;1.20;;;;;;;15.12;54.47;93669.56;4972776;28;20141;-77
2022/09/12 01:34:48;;;;;;;1.38;1.00;;;;;;;14.93;54.98;93651.47;4974711;28;20398;-77
2022/09/12 01:37:33;;;;;;;1.58;1.45;;;;;;;15.32;54.60;93685.38;4974640;28;20943;-78
2022/09/12 01:40:40;;;;;;;2.15;1.00;;;;;;;15.39;54.66;93698.19;4962269;28;20050;-77
2022/09/12 01:43:21;;;;;;;1.65;0.90;;;;;;;15.41;54.69;93691.34;4915465;29;20042;-77
2022/09/12 01:45:58;;;;;;;1.20;1.00;;;;;;;15.47;54.02;93675.81;4916041;29;20125;-78
2022/09/12 01:48:30;;;;;;;0.80;0.80;;;;;;;15.60;53.93;93693.34;4934851;28;20069;-78
2022/09/12 01:51:03;;;;;;;2.38;1.00;;;;;;;15.44;53.70;93680.00;4974239;28;20026;-76
2022/09/12 01:53:34;;;;;;;1.10;1.00;;;;;;;15.56;53.96;93686.34;4957661;28;20088;-77
2022/09/12 01:56:12;;;;;;;1.35;1.08;;;;;;;15.69;53.68;93682.47;4972674;28;20533;-76
2022/09/12 01:58:43;;;;;;;1.10;0.90;;;;;;;15.74;53.22;93676.84;4973514;28;20900;-76
2022/09/12 02:01:18;;;;;;;1.35;1.05;;;;;;;15.63;52.71;93646.34;4975194;28;20107;-79
2022/09/12 02:04:07;;;;;;;1.35;1.00;;;;;;;15.74;51.92;93677.59;4974087;28;20035;-79
2022/09/12 02:06:52;;;;;;;1.08;0.75;;;;;;;15.80;52.23;93680.78;4967178;28;20043;-77
2022/09/12 02:09:21;;;;;;;1.33;1.00;;;;;;;15.70;52.36;93686.69;4972309;28;20125;-77
2022/09/12 02:11:52;;;;;;;1.00;0.90;;;;;;;15.71;52.10;93677.53;4954722;28;20535;-77
2022/09/12 02:14:27;;;;;;;1.30;0.90;;;;;;;15.73;52.21;93686.00;4972683;28;20058;-78
2022/09/12 02:17:20;;;;;;;2.70;0.85;;;;;;;15.51;52.78;93643.75;4970958;28;20155;-77
2022/09/12 02:19:56;;;;;;;1.25;0.98;;;;;;;15.79;52.23;93676.59;4972687;28;20062;-78
2022/09/12 02:22:25;;;;;;;1.42;1.27;;;;;;;15.60;52.38;93655.03;4972419;28;20023;-78
2022/09/12 02:24:56;;;;;;;1.00;0.90;;;;;;;15.56;52.05;93684.47;4970292;28;20032;-77
2022/09/12 02:27:27;;;;;;;0.77;0.70;;;;;;;15.48;52.60;93676.59;4974142;28;20022;-77
2022/09/12 02:29:52;;;;;;;1.27;0.88;;;;;;;15.37;52.51;93657.56;4972633;28;20036;-77
2022/09/12 02:32:29;;;;;;;0.88;0.88;;;;;;;15.39;53.11;93671.41;4974436;28;20022;-77
2022/09/12 02:35:24;;;;;;;1.10;1.00;;;;;;;15.46;52.65;93677.72;4969115;28;20493;-78
2022/09/12 02:38:21;;;;;;;1.10;1.00;;;;;;;15.31;52.88;93681.16;4920934;28;20039;-78
2022/09/12 02:40:46;;;;;;;0.70;0.70;;;;;;;15.15;53.18;93645.56;4952512;28;20113;-77
2022/09/12 02:43:12;;;;;;;1.48;0.80;;;;;;;15.46;53.04;93677.72;4971001;28;20030;-77
2022/09/12 02:45:37;;;;;;;1.30;0.93;;;;;;;15.23;53.17;93647.28;4957906;28;20034;-77
2022/09/12 02:48:23;;;;;;;5.03;0.88;;;;;;;15.38;53.46;93689.38;4960446;28;20646;-77
2022/09/12 02:50:49;;;;;;;1.15;0.98;;;;;;;14.78;54.23;93628.13;4974788;28;20117;-79
2022/09/12 02:53:14;;;;;;;2.17;1.15;;;;;;;15.00;54.31;93649.00;4972292;28;20026;-78
2022/09/12 02:55:42;;;;;;;1.27;1.02;;;;;;;15.16;54.18;93663.16;4973751;28;20494;-77
2022/09/12 02:58:13;;;;;;;2.30;0.95;;;;;;;15.07;54.30;93654.50;4971627;28;20026;-78
2022/09/12 03:00:51;;;;;;;0.95;0.90;;;;;;;14.86;54.94;93670.81;4972242;28;20030;-77
2022/09/12 03:03:55;;;;;;;1.02;0.90;;;;;;;15.01;55.30;93685.34;4970422;28;20117;-78
2022/09/12 03:07:00;;;;;;;1.33;1.23;;;;;;;14.92;55.43;93685.50;4912253;29;20044;-78
2022/09/12 03:09:44;;;;;;;1.95;1.40;;;;;;;14.76;56.14;93698.09;4943520;28;20041;-77
2022/09/12 03:12:33;;;;;;;2.35;1.10;;;;;;;14.81;56.08;93694.41;4971518;28;20030;-77
2022/09/12 03:15:17;;;;;;;2.75;1.10;;;;;;;14.99;56.04;93701.78;4971350;28;20435;-78
2022/09/12 03:18:11;;;;;;;3.15;1.10;;;;;;;14.89;55.75;93696.91;4974422;28;20117;-77
2022/09/12 03:20:47;;;;;;;1.77;1.40;;;;;;;14.78;56.01;93700.41;4955109;28;20041;-77
2022/09/12 03:23:27;;;;;;;1.40;1.20;;;;;;;14.87;56.49;93698.38;4972089;28;20039;-77
2022/09/12 03:26:08;;;;;;;1.20;1.10;;;;;;;14.96;55.92;93705.13;4971388;28;20041;-78
2022/09/12 03:28:35;;;;;;;2.03;1.42;;;;;;;15.00;55.57;93703.34;4971599;28;20026;-77
2022/09/12 03:31:12;;;;;;;2.85;1.48;;;;;;;15.16;55.67;93703.34;4971434;28;20506;-78
2022/09/12 03:33:37;;;;;;;1.63;1.30;;;;;;;14.81;56.02;93683.69;4959824;28;20037;-79
2022/09/12 03:36:03;;;;;;;1.70;1.10;;;;;;;14.83;55.54;93673.41;4971335;28;20030;-78
2022/09/12 03:38:28;;;;;;;1.33;1.20;;;;;;;14.89;55.64;93659.44;4951559;28;20030;-77
2022/09/12 03:40:53;;;;;;;1.40;1.20;;;;;;;15.02;55.59;93674.31;4973176;28;20049;-77
2022/09/12 03:43:19;;;;;;;1.17;1.08;;;;;;;15.15;54.93;93671.56;4954496;28;20041;-78
2022/09/12 03:45:50;;;;;;;2.55;1.35;;;;;;;15.31;54.51;93691.88;4972302;28;20110;-78
2022/09/12 03:48:16;;;;;;;1.52;1.10;;;;;;;15.11;54.72;93657.31;4970436;28;20180;-77
2022/09/12 03:50:41;;;;;;;2.28;1.52;;;;;;;15.05;55.13;93696.94;4971333;28;20602;-77
2022/09/12 03:53:06;;;;;;;2.38;1.83;;;;;;;14.82;55.74;93677.19;4973807;28;20419;-77
2022/09/12 03:55:32;;;;;;;2.25;1.60;;;;;;;15.11;55.17;93692.88;4970087;28;20026;-77
2022/09/12 03:57:57;;;;;;;1.80;1.60;;;;;;;15.06;55.81;93695.81;4970835;28;20080;-77
2022/09/12 04:00:23;;;;;;;2.22;1.65;;;;;;;14.91;55.57;93673.25;4972091;28;20301;-78
2022/09/12 04:02:53;;;;;;;3.15;2.22;;;;;;;15.09;55.42;93699.72;4960805;28;20027;-77
2022/09/12 04:05:19;;;;;;;2.67;2.25;;;;;;;15.14;55.40;93694.88;4969289;28;20026;-78
2022/09/12 04:07:44;;;;;;;2.45;2.08;;;;;;;15.11;55.42;93703.59;4973232;28;20029;-76
2022/09/12 04:10:09;;;;;;;2.97;2.45;;;;;;;15.20;55.31;93706.91;4972548;28;20054;-77
2022/09/12 04:12:35;;;;;;;2.53;2.33;;;;;;;15.19;54.77;93686.59;4970851;28;20026;-77
2022/09/12 04:15:00;;;;;;;3.67;2.92;;;;;;;15.25;54.53;93708.56;4971067;28;20065;-78
2022/09/12 04:17:26;;;;;;;3.63;3.08;;;;;;;15.34;55.01;93709.94;4973999;28;20050;-77
2022/09/12 04:19:51;;;;;;;4.43;2.35;;;;;;;15.28;54.73;93723.94;4960659;28;20395;-77
2022/09/12 04:22:16;;;;;;;3.47;2.85;;;;;;;15.21;54.69;93705.75;4972578;28;20045;-78
2022/09/12 04:24:42;;;;;;;3.47;2.90;;;;;;;15.34;54.93;93712.63;4968816;28;20152;-78
2022/09/12 04:27:07;;;;;;;4.03;2.47;;;;;;;15.14;54.97;93702.94;4971686;28;20026;-77
2022/09/12 04:29:34;;;;;;;3.83;2.53;;;;;;;15.23;55.60;93722.28;4972272;28;20084;-77
2022/09/12 04:31:59;;;;;;;2.90;2.20;;;;;;;15.14;55.55;93715.53;4972947;28;20407;-78
2022/09/12 04:34:25;;;;;;;2.55;2.00;;;;;;;15.19;56.07;93720.66;4970569;28;20030;-78
2022/09/12 04:36:50;;;;;;;4.00;2.72;;;;;;;15.18;55.99;93730.56;4972271;28;20096;-78
2022/09/12 04:39:16;;;;;;;3.10;2.33;;;;;;;15.21;56.05;93718.38;4970119;28;20101;-78
2022/09/12 04:41:41;;;;;;;2.85;2.53;;;;;;;15.23;55.71;93711.56;4971146;28;20030;-77
2022/09/12 04:44:11;;;;;;;2.65;2.40;;;;;;;15.43;55.58;93718.59;4970489;28;20382;-79
2022/09/12 04:46:42;;;;;;;2.50;2.25;;;;;;;15.43;55.77;93699.06;4969692;28;20052;-79
2022/09/12 04:49:08;;;;;;;3.25;2.20;;;;;;;15.50;54.78;93725.28;4970831;28;20108;-77
2022/09/12 04:51:36;;;;;;;3.10;2.28;;;;;;;15.24;55.51;93729.22;4970496;28;20503;-78
2022/09/12 04:54:07;;;;;;;2.03;1.70;;;;;;;15.12;56.38;93720.44;4970708;28;20026;-77
2022/09/12 04:56:37;;;;;;;3.33;2.42;;;;;;;15.29;56.23;93722.81;4970780;28;20702;-77
2022/09/12 04:59:03;;;;;;;2.92;2.63;;;;;;;15.38;56.33;93734.94;4959613;28;20031;-78
2022/09/12 05:01:29;;;;;;;3.22;2.83;;;;;;;15.24;55.86;93729.22;4976326;28;20022;-77
2022/09/12 05:03:55;;;;;;;4.75;2.50;;;;;;;15.40;55.62;93729.97;4973305;28;20538;-77
2022/09/12 05:06:23;;;;;;;5.25;2.58;;;;;;;15.55;55.56;93733.81;4974729;28;20117;-77
2022/09/12 05:08:50;;;;;;;4.53;2.28;;;;;;;15.46;55.33;93706.41;4975611;28;20446;-78
2022/09/12 05:11:19;;;;;;;1.88;1.70;;;;;;;15.71;55.05;93728.47;4963822;28;20126;-77
2022/09/12 05:13:45;;;;;;;2.28;1.75;;;;;;;15.78;54.93;93726.75;4974293;28;20040;-78
2022/09/12 05:16:12;;;;;;;2.63;1.83;;;;;;;15.75;54.44;93713.25;4974073;28;20054;-78
2022/09/12 05:18:38;;;;;;;2.35;2.08;;;;;;;15.87;54.06;93734.59;4963798;28;20027;-78
2022/09/12 05:21:06;;;;;;;3.33;1.70;;;;;;;15.77;54.08;93727.09;4973275;28;20037;-77
2022/09/12 05:23:32;;;;;;;1.80;1.40;;;;;;;15.64;54.48;93725.63;4973768;28;20092;-78
2022/09/12 05:25:59;;;;;;;1.92;1.40;;;;;;;15.37;54.76;93703.09;4974024;28;20029;-77
2022/09/12 05:28:29;;;;;;;1.98;1.65;;;;;;;15.49;54.67;93721.81;4974209;28;20022;-77
2022/09/12 05:31:04;;;;;;;3.60;2.05;;;;;;;15.75;54.21;93738.16;4975238;28;21498;-79
2022/09/12 05:33:31;;;;;;;2.90;1.80;;;;;;;15.72;54.04;93727.34;4962093;28;20027;-77
2022/09/12 05:35:57;;;;;;;3.53;2.50;;;;;;;15.59;54.16;93707.13;4974952;28;20434;-77
2022/09/12 05:38:23;;;;;;;2.83;2.55;;;;;;;15.58;54.21;93727.78;4972572;28;20025;-77
2022/09/12 05:40:50;;;;;;;2.58;2.13;;;;;;;15.52;54.56;93731.06;4974838;28;20035;-78
2022/09/12 05:43:15;;;;;;;3.83;3.15;;;;;;;15.39;54.61;93704.34;4972183;28;20031;-78
2022/09/12 05:45:40;;;;;;;6.13;2.78;;;;;;;15.52;54.63;93731.06;4977113;28;20039;-77
2022/09/12 05:48:06;;;;;;;3.92;2.80;;;;;;;15.52;54.18;93723.03;4957495;28;20022;-77
2022/09/12 05:50:32;;;;;;;3.40;3.05;;;;;;;15.77;54.06;93725.19;4954209;28;20035;-78
2022/09/12 05:52:57;;;;;;;4.35;3.13;;;;;;;15.75;53.86;93718.59;4967207;28;20042;-77
2022/09/12 05:55:23;;;;;;;2.50;2.30;;;;;;;15.64;53.71;93699.59;4970665;28;20092;-78
2022/09/12 05:57:49;;;;;;;3.13;2.50;;;;;;;15.66;53.58;93702.69;4972542;28;20109;-77
2022/09/12 06:00:16;;;;;;;3.85;2.90;;;;;;;15.65;53.79;93711.88;4969610;28;20045;-78
2022/09/12 06:02:41;;;;;;;3.97;3.08;;;;;;;15.52;53.86;93701.59;4971478;28;20038;-77
2022/09/12 06:05:07;;;;;;;2.92;2.63;;;;;;;15.57;54.34;93704.00;4974353;28;20372;-77
2022/09/12 06:07:33;;;;;;;4.72;3.78;;;;;;;15.56;53.95;93703.22;4973067;28;20459;-76
2022/09/12 06:09:58;;;;;;;3.38;2.88;;;;;;;15.62;53.66;93685.75;4972483;28;20034;-76
2022/09/12 06:12:25;;;;;;;4.15;3.20;;;;;;;15.69;53.14;93699.34;4973344;28;20109;-78
2022/09/12 06:14:51;;;;;;;3.25;2.80;;;;;;;15.45;53.34;93660.06;4955728;28;20156;-78
2022/09/12 06:17:17;;;;;;;2.67;2.47;;;;;;;15.80;53.05;93708.41;4971529;28;20030;-78
2022/09/12 06:19:43;;;;;;;4.22;2.80;;;;;;;15.77;52.87;93708.31;4972767;28;20065;-78
2022/09/12 06:22:09;;;;;;;3.45;3.15;;;;;;;15.64;52.91;93677.38;4955683;28;20035;-78
2022/09/12 06:24:34;;;;;;;3.70;2.97;;;;;;;15.86;53.50;93711.59;4974419;28;20108;-78
2022/09/12 06:27:01;;;;;;;4.03;3.00;;;;;;;15.75;53.61;93721.28;4967978;28;20026;-78
2022/09/12 06:29:27;;;;;;;3.40;3.03;;;;;;;15.54;52.78;93697.44;4971008;28;20030;-77
2022/09/12 06:31:52;;;;;;;3.67;2.83;;;;;;;15.71;53.10;93731.94;4974011;28;20455;-77
2022/09/12 06:34:18;;;;;;;4.05;2.88;;;;;;;15.70;52.95;93705.47;4971599;28;20506;-78
2022/09/12 06:36:46;;;;;;;3.45;3.15;;;;;;;15.65;53.25;93711.09;4972312;28;20892;-78
2022/09/12 06:39:14;;;;;;;4.70;3.17;;;;;;;15.59;53.11;93707.13;4958524;28;20034;-77
2022/09/12 06:41:39;;;;;;;3.45;3.15;;;;;;;15.64;53.21;93712.22;4954103;28;20147;-78
2022/09/12 06:44:05;;;;;;;4.22;3.05;;;;;;;15.82;53.20;93719.56;4973721;28;20484;-77
2022/09/12 06:46:32;;;;;;;3.80;3.50;;;;;;;16.15;53.70;93734.47;4971751;28;20022;-78
2022/09/12 06:48:59;;;;;;;3.45;3.15;;;;;;;16.25;53.29;93734.72;4961974;28;20030;-78
2022/09/12 06:51:26;;;;;;;6.22;3.55;;;;;;;16.28;53.06;93738.63;4972076;28;20046;-78
2022/09/12 06:53:54;;;;;;;3.90;3.58;;;;;;;16.17;54.05;93734.91;4973197;28;20552;-77
2022/09/12 06:56:22;;;;;;;3.58;3.28;;;;;;;16.23;54.02;93753.06;4970648;28;20089;-77
2022/09/12 06:58:50;;;;;;;3.90;3.28;;;;;;;16.22;54.76;93740.78;4971189;28;20026;-79
2022/09/12 07:01:20;;;;;;;3.50;3.20;;;;;;;16.33;54.14;93745.66;4970215;28;20030;-78
2022/09/12 07:03:48;;;;;;;3.67;3.25;;;;;;;16.29;54.37;93756.25;4969117;28;20037;-76
2022/09/12 07:06:16;;;;;;;3.50;3.13;;;;;;;15.78;54.56;93740.16;4971304;28;20164;-77
2022/09/12 07:08:41;;;;;;;5.90;3.20;;;;;;;15.67;54.86;93708.84;4971488;28;20030;-78
2022/09/12 07:11:10;;;;;;;3.55;3.22;;;;;;;15.80;54.78;93769.28;4970599;28;20026;-77
2022/09/12 07:13:36;;;;;;;3.50;3.20;;;;;;;15.75;54.89;93754.25;4969871;28;20041;-77
2022/09/12 07:16:03;;;;;;;5.18;3.28;;;;;;;15.68;54.67;93745.25;4972392;28;20046;-77
2022/09/12 07:18:28;;;;;;;4.18;3.65;;;;;;;15.83;54.76;93763.25;4968285;28;20290;-77
2022/09/12 07:20:54;;;;;;;4.28;3.38;;;;;;;15.79;53.58;93754.34;4974414;28;20736;-79
2022/09/12 07:23:19;;;;;;;3.88;3.50;;;;;;;15.99;53.58;93769.34;4968988;28;20034;-77
2022/09/12 07:25:52;;;;;;;3.90;3.50;;;;;;;16.05;53.33;93762.63;4971294;28;20034;-78
2022/09/12 07:28:18;;;;;;;4.43;4.03;;;;;;;15.91;53.69;93754.22;4971814;28;20080;-77
2022/09/12 07:30:43;;;;;;;3.70;3.25;;;;;;;16.05;53.04;93757.25;4969876;28;20117;-78
2022/09/12 07:33:08;;;;;;;3.72;3.35;;;;;;;16.05;52.90;93735.00;4968260;28;20498;-77
2022/09/12 07:35:34;;;;;;;5.55;3.60;;;;;;;16.18;52.32;93768.66;4968726;28;20121;-77
2022/09/12 07:37:59;;;;;;;5.47;4.10;;;;;;;16.00;52.75;93741.41;4957272;28;20026;-78
2022/09/12 07:40:25;;;;;;;3.92;3.53;;;;;;;15.88;52.42;93768.34;4971993;28;20127;-77
2022/09/12 07:42:50;;;;;;;4.93;3.95;;;;;;;15.62;52.43;93734.00;4967025;28;21076;-78
2022/09/12 07:45:16;;;;;;;5.20;4.60;;;;;;;15.74;52.95;93747.31;4972500;28;20654;-78
2022/09/12 07:47:41;;;;;;;7.20;5.93;;;;;;;15.64;53.70;93722.94;4967095;28;20111;-77
2022/09/12 07:50:07;;;;;;;4.57;4.07;;;;;;;15.78;53.67;93736.69;4968051;28;20068;-78
2022/09/12 07:52:32;;;;;;;4.28;3.70;;;;;;;16.03;53.00;93750.69;4962745;28;20042;-78
2022/09/12 07:55:03;;;;;;;5.80;3.15;;;;;;;16.05;52.55;93729.63;5033889;27;1307882;-78
2022/09/12 07:57:28;;;;;;;4.90;4.43;;;;;;;15.87;52.90;93724.66;5093446;28;20035;-77
2022/09/12 07:59:54;;;;;;;4.32;3.88;;;;;;;15.93;53.28;93748.53;5077195;28;20158;-79
2022/09/12 08:02:19;;;;;;;4.38;3.80;;;;;;;16.02;52.51;93757.94;5090977;28;20033;-78
2022/09/12 08:04:46;;;;;;;5.32;3.40;;;;;;;15.78;51.72;93725.97;5093228;28;20486;-78
2022/09/12 08:07:11;;;;;;;3.70;3.40;;;;;;;16.01;52.75;93734.94;5094690;28;20137;-78
2022/09/12 08:09:37;;;;;;;4.65;3.90;;;;;;;16.20;52.22;93744.94;5092738;28;20107;-77
2022/09/12 08:12:02;;;;;;;5.90;3.83;;;;;;;16.22;52.25;93750.75;5078068;28;20030;-78
2022/09/12 08:14:28;;;;;;;3.15;2.85;;;;;;;16.04;51.49;93728.84;5092351;28;20603;-76
2022/09/12 08:16:54;;;;;;;4.00;3.13;;;;;;;16.32;51.58;93755.59;5074859;28;20509;-77
2022/09/12 08:19:21;;;;;;;3.30;3.00;;;;;;;16.33;51.19;93741.03;5096774;28;20023;-78
2022/09/12 08:21:47;;;;;;;2.97;2.78;;;;;;;16.36;51.37;93752.97;5076558;28;20069;-76
2022/09/12 08:24:12;;;;;;;3.53;2.38;;;;;;;16.33;50.50;93738.34;5093486;28;20024;-78
2022/09/12 08:26:38;;;;;;;3.13;2.83;;;;;;;16.40;50.98;93745.78;5072196;28;20547;-76
2022/09/12 08:29:04;;;;;;;2.45;2.25;;;;;;;16.42;51.05;93740.84;5068994;28;20062;-78
2022/09/12 08:31:36;;;;;;;3.35;3.03;;;;;;;16.31;51.15;93722.63;5071521;28;20110;-77
2022/09/12 08:34:05;;;;;;;2.55;2.35;;;;;;;16.35;51.16;93738.00;5074058;28;20035;-78
2022/09/12 08:36:31;;;;;;;3.10;2.30;;;;;;;16.30;51.19;93726.41;5094772;28;20020;-77
2022/09/12 08:39:03;;;;;;;3.45;2.40;;;;;;;16.51;50.91;93736.84;5069365;28;20028;-78
2022/09/12 08:41:39;;;;;;;3.35;2.35;;;;;;;16.37;51.09;93725.03;5077750;28;20517;-78
2022/09/12 08:44:23;;;;;;;4.75;2.85;;;;;;;16.38;51.90;93742.69;5097796;28;20023;-78
2022/09/12 08:46:58;;;;;;;2.40;2.20;;;;;;;16.28;51.42;93760.84;5054442;28;20039;-77
2022/09/12 08:49:32;;;;;;;2.63;2.35;;;;;;;16.30;51.37;93763.19;5058239;28;20072;-78
2022/09/12 08:52:01;;;;;;;3.15;2.70;;;;;;;16.22;51.82;93751.53;5050745;28;20028;-77
2022/09/12 08:54:29;;;;;;;4.88;2.67;;;;;;;16.06;51.72;93723.16;5060336;28;20051;-77
2022/09/12 08:57:02;;;;;;;2.70;2.50;;;;;;;16.01;51.08;93721.53;5058061;28;20032;-76
2022/09/12 08:59:36;;;;;;;2.60;2.40;;;;;;;16.25;50.40;93750.81;5059794;28;20020;-78
2022/09/12 09:02:12;;;;;;;3.20;2.92;;;;;;;16.29;50.55;93753.56;5061191;28;20031;-76
2022/09/12 09:05:15;;;;;;;3.40;3.10;;;;;;;16.33;50.91;93735.66;5046416;28;20029;-78
2022/09/12 09:07:53;;;;;;;3.78;2.97;;;;;;;16.28;49.92;93743.97;5048881;28;20107;-77
2022/09/12 09:10:31;;;;;;;3.58;3.28;;;;;;;16.33;50.20;93737.59;5019596;28;20064;-77
2022/09/12 09:16:29;;;;;;;3.45;3.00;;;;;;;16.48;50.26;93739.44;5046484;28;20062;-77
2022/09/12 09:18:59;;;;;;;3.80;3.25;;;;;;;16.54;49.21;93741.50;5047356;28;20024;-77
2022/09/12 09:21:36;;;;;;;3.90;3.50;;;;;;;16.49;49.99;93732.94;5032515;28;20025;-76
2022/09/12 09:24:05;;;;;;;2.75;2.40;;;;;;;16.29;49.65;93732.88;5047217;28;20023;-77
2022/09/12 09:27:04;;;;;;;3.30;3.00;;;;;;;16.32;48.93;93728.75;5047540;28;20040;-76
2022/09/12 09:29:40;;;;;;;3.55;3.17;;;;;;;16.27;49.77;93727.09;5047048;28;20025;-77
2022/09/12 09:32:15;;;;;;;5.65;3.65;;;;;;;16.29;50.67;93722.16;5046714;28;20044;-77
2022/09/12 09:34:41;;;;;;;5.70;3.80;;;;;;;16.37;50.88;93733.84;5046047;28;20032;-77
2022/09/12 09:37:27;;;;;;;3.92;3.28;;;;;;;16.35;50.67;93721.91;5047493;28;20033;-77
2022/09/12 09:40:14;;;;;;;3.97;3.60;;;;;;;16.33;50.01;93725.72;5048007;28;20031;-78
2022/09/12 09:42:45;;;;;;;2.80;2.45;;;;;;;16.17;50.14;93695.44;5033384;28;20041;-77
2022/09/12 09:45:15;;;;;;;3.40;2.88;;;;;;;16.49;50.32;93720.28;5046412;28;20028;-77
2022/09/12 09:47:56;;;;;;;3.67;3.30;;;;;;;16.56;49.95;93723.13;5046168;28;20025;-78
2022/09/12 09:50:22;;;;;;;3.65;3.20;;;;;;;16.64;49.33;93719.47;5032149;28;20028;-77
2022/09/12 09:52:50;;;;;;;2.83;2.63;;;;;;;16.67;50.16;93718.75;5046679;28;20082;-76
2022/09/12 09:55:20;;;;;;;5.10;3.20;;;;;;;16.82;49.74;93709.06;5047933;28;20570;-77
2022/09/12 09:57:46;;;;;;;3.65;3.10;;;;;;;16.79;49.84;93693.66;5027030;28;20411;-76
2022/09/12 10:00:30;;;;;;;4.38;2.85;;;;;;;16.78;49.37;93718.97;5046523;28;20547;-78
2022/09/12 10:03:33;;;;;;;3.90;3.45;;;;;;;16.70;48.88;93685.06;5047349;28;20051;-78
2022/09/12 10:26:54;;;;;;;4.97;4.07;;;;;;;17.23;49.21;93699.50;5042901;28;20101;-78
2022/09/12 10:29:30;;;;;;;3.30;2.90;;;;;;;17.07;48.97;93669.22;5023813;28;20036;-77
2022/09/12 10:31:59;;;;;;;4.03;3.35;;;;;;;17.44;48.85;93688.34;5030179;28;20129;-76
2022/09/12 10:34:42;;;;;;;4.00;3.60;;;;;;;17.52;48.49;93708.81;5044987;28;20111;-79
2022/09/12 10:37:16;;;;;;;4.20;3.42;;;;;;;17.55;47.95;93702.75;5046046;28;20025;-78
2022/09/12 10:39:52;;;;;;;4.18;3.78;;;;;;;17.10;48.15;93674.69;5046312;28;20027;-77
2022/09/12 10:42:45;;;;;;;4.10;3.70;;;;;;;17.09;48.02;93697.31;5044856;28;20036;-78
2022/09/12 10:45:31;;;;;;;3.72;3.42;;;;;;;17.26;48.07;93711.47;5031110;28;20024;-77
2022/09/12 10:47:59;;;;;;;4.72;3.67;;;;;;;17.12;48.43;93690.44;5046797;28;20800;-76
2022/09/12 10:50:41;;;;;;;5.05;4.30;;;;;;;17.33;49.54;93700.81;5047531;28;20032;-77
2022/09/12 10:53:24;;;;;;;5.47;3.78;;;;;;;17.46;47.89;93704.88;5044659;28;20048;-77
2022/09/12 10:56:04;;;;;;;4.75;4.05;;;;;;;17.36;47.91;93706.25;5045682;28;20031;-77
2022/09/12 10:58:42;;;;;;;4.55;3.80;;;;;;;17.41;48.52;93707.84;5044237;28;20116;-78
2022/09/12 11:01:32;;;;;;;4.13;3.42;;;;;;;17.61;47.72;93712.03;5046247;28;20590;-76
2022/09/12 11:04:23;;;;;;;3.65;3.22;;;;;;;17.66;47.21;93702.91;5044266;28;20024;-77
2022/09/12 11:07:13;;;;;;;3.53;3.22;;;;;;;17.66;45.96;93709.06;5046869;28;20059;-78
2022/09/12 11:09:54;;;;;;;3.78;3.38;;;;;;;17.54;45.35;93707.34;5027695;28;20029;-78
2022/09/12 11:12:58;;;;;;;3.88;3.22;;;;;;;17.72;45.50;93707.63;5032360;28;20024;-79
2022/09/12 11:15:29;;;;;;;3.95;2.90;;;;;;;17.64;45.31;93703.28;5045858;28;20102;-78
2022/09/12 11:18:22;;;;;;;3.70;2.95;;;;;;;17.72;45.59;93696.09;5045173;28;22809;-78
2022/09/12 11:21:08;;;;;;;4.13;3.72;;;;;;;17.75;46.31;93685.38;5016359;28;20907;-78
2022/09/12 11:23:42;;;;;;;4.95;3.65;;;;;;;17.84;45.44;93688.63;5034168;28;20036;-78
2022/09/12 11:26:39;;;;;;;5.28;3.83;;;;;;;17.83;45.77;93689.75;5046834;28;20116;-77
2022/09/12 11:29:13;;;;;;;5.07;3.65;;;;;;;17.69;45.73;93697.59;5045441;28;20395;-79
2022/09/12 11:32:27;;;;;;;3.72;3.38;;;;;;;17.66;46.59;93692.13;5045375;28;20024;-78
2022/09/12 11:35:20;;;;;;;3.70;3.30;;;;;;;17.78;46.74;93695.44;4974742;28;20043;-78
2022/09/12 11:37:48;;;;;;;4.40;3.97;;;;;;;17.83;46.76;93697.81;5044869;28;20581;-77
2022/09/12 11:40:41;;;;;;;4.07;3.38;;;;;;;17.76;47.19;93681.56;5047673;28;20023;-79
2022/09/12 11:43:28;;;;;;;4.45;3.65;;;;;;;17.80;46.94;93692.34;5047835;28;21760;-78
2022/09/12 11:45:58;;;;;;;5.18;4.03;;;;;;;17.63;47.95;93688.28;5050371;28;20059;-76
2022/09/12 11:48:58;;;;;;;8.65;4.32;;;;;;;17.60;48.20;93692.44;5048493;28;20024;-78
2022/09/12 11:52:01;;;;;;;5.28;3.83;;;;;;;17.54;47.28;93693.13;5036306;28;20020;-78
2022/09/12 11:54:26;;;;;;;4.63;3.95;;;;;;;17.51;47.83;93696.50;5049643;28;20057;-77
2022/09/12 11:57:35;;;;;;;4.05;2.97;;;;;;;17.38;46.77;93684.41;5049249;28;20032;-77
2022/09/12 12:00:18;;;;;;;3.75;3.33;;;;;;;17.49;47.33;93688.81;5034495;28;20045;-79
2022/09/12 12:02:51;;;;;;;4.07;3.67;;;;;;;17.43;47.05;93689.47;5031315;28;20489;-78
2022/09/12 12:05:27;;;;;;;4.28;3.50;;;;;;;17.45;47.12;93703.34;5047537;28;20101;-78
2022/09/12 12:07:55;;;;;;;3.22;2.92;;;;;;;17.47;45.54;93685.69;5032367;28;20020;-78
2022/09/12 12:10:23;;;;;;;3.15;2.85;;;;;;;17.59;45.78;93680.16;5047208;28;21312;-77
2022/09/12 12:12:51;;;;;;;2.58;2.20;;;;;;;17.55;45.56;93681.25;5048360;28;20025;-78
2022/09/12 12:15:17;;;;;;;3.72;2.90;;;;;;;17.62;45.44;93675.97;5047033;28;20025;-78
2022/09/12 12:17:43;;;;;;;3.72;3.30;;;;;;;17.64;45.53;93683.66;5050086;28;20852;-79
2022/09/12 12:20:19;;;;;;;2.88;2.58;;;;;;;17.63;45.74;93665.97;5049176;28;20059;-79
2022/09/12 12:22:53;;;;;;;3.08;2.25;;;;;;;17.71;44.92;93679.16;5039315;28;20025;-78